sensor_id;sensor_type;location;lat;lon;timestamp;temperature;humidity
13245;DHT22;6689;53.400;12.486;2023-04-25T00:01:46;9.80;99.90
13245;DHT22;6689;53.400;12.486;2023-04-25T00:04:14;9.80;99.90
13245;DHT22;6689;53.400;12.486;2023-04-25T00:06:43;9.70;99.90
13245;DHT22;6689;53.400;12.486;2023-04-25T00:09:11;9.80;99.90
13245;DHT22;6689;53.400;12.486;2023-04-25T00:11:40;9.80;99.90
13245;DHT22;6689;53.400;12.486;2023-04-25T00:14:07;9.70;99.90
13245;DHT22;6689;53.400;12.486;2023-04-25T00:16:35;9.70;99.90
13245;DHT22;6689;53.400;12.486;2023-04-25T00:19:03;9.70;99.90
13245;DHT22;6689;53.400;12.486;2023-04-25T00:21:32;9.70;99.90
13245;DHT22;6689;53.400;12.486;2023-04-25T00:24:01;9.70;99.90
13245;DHT22;6689;53.400;12.486;2023-04-25T00:26:28;9.80;99.90
13245;DHT22;6689;53.400;12.486;2023-04-25T00:28:56;9.70;99.90
13245;DHT22;6689;53.400;12.486;2023-04-25T00:31:23;9.70;99.90
13245;DHT22;6689;53.400;12.486;2023-04-25T00:33:50;9.70;99.90
13245;DHT22;6689;53.400;12.486;2023-04-25T00:36:18;9.70;99.90
13245;DHT22;6689;53.400;12.486;2023-04-25T00:38:46;9.70;99.90
13245;DHT22;6689;53.400;12.486;2023-04-25T00:41:15;9.70;99.90
13245;DHT22;6689;53.400;12.486;2023-04-25T00:43:43;9.70;99.90
13245;DHT22;6689;53.400;12.486;2023-04-25T00:46:11;9.70;99.90
13245;DHT22;6689;53.400;12.486;2023-04-25T00:48:38;9.70;99.90
13245;DHT22;6689;53.400;12.486;2023-04-25T00:51:10;9.70;99.90
13245;DHT22;6689;53.400;12.486;2023-04-25T00:53:39;9.60;99.90
13245;DHT22;6689;53.400;12.486;2023-04-25T00:56:06;9.60;99.90
13245;DHT22;6689;53.400;12.486;2023-04-25T00:58:35;9.60;99.90
13245;DHT22;6689;53.400;12.486;2023-04-25T01:01:03;9.60;99.90
13245;DHT22;6689;53.400;12.486;2023-04-25T01:03:32;9.60;99.90
13245;DHT22;6689;53.400;12.486;2023-04-25T01:06:01;9.60;99.90
13245;DHT22;6689;53.400;12.486;2023-04-25T01:08:29;9.60;99.90
13245;DHT22;6689;53.400;12.486;2023-04-25T01:10:56;9.60;99.90
13245;DHT22;6689;53.400;12.486;2023-04-25T01:13:25;9.50;99.90
13245;DHT22;6689;53.400;12.486;2023-04-25T01:15:54;9.50;99.90
13245;DHT22;6689;53.400;12.486;2023-04-25T01:18:22;9.50;99.90
13245;DHT22;6689;53.400;12.486;2023-04-25T01:20:51;9.40;99.90
13245;DHT22;6689;53.400;12.486;2023-04-25T01:23:20;9.50;99.90
13245;DHT22;6689;53.400;12.486;2023-04-25T01:25:48;9.50;99.90
13245;DHT22;6689;53.400;12.486;2023-04-25T01:28:16;9.40;99.90
13245;DHT22;6689;53.400;12.486;2023-04-25T01:30:44;9.50;99.90
13245;DHT22;6689;53.400;12.486;2023-04-25T01:33:12;9.50;99.90
13245;DHT22;6689;53.400;12.486;2023-04-25T01:35:40;9.50;99.90
13245;DHT22;6689;53.400;12.486;2023-04-25T01:38:08;9.50;99.90
13245;DHT22;6689;53.400;12.486;2023-04-25T01:40:40;9.50;99.90
13245;DHT22;6689;53.400;12.486;2023-04-25T01:43:08;9.50;99.90
13245;DHT22;6689;53.400;12.486;2023-04-25T01:45:37;9.40;99.90
13245;DHT22;6689;53.400;12.486;2023-04-25T01:48:06;9.40;99.90
13245;DHT22;6689;53.400;12.486;2023-04-25T01:50:34;9.50;99.90
13245;DHT22;6689;53.400;12.486;2023-04-25T01:53:01;9.50;99.90
13245;DHT22;6689;53.400;12.486;2023-04-25T01:55:29;9.50;99.90
13245;DHT22;6689;53.400;12.486;2023-04-25T01:57:58;9.50;99.90
13245;DHT22;6689;53.400;12.486;2023-04-25T02:00:26;9.50;99.90
13245;DHT22;6689;53.400;12.486;2023-04-25T02:02:53;9.50;99.90
13245;DHT22;6689;53.400;12.486;2023-04-25T02:05:21;9.50;99.90
13245;DHT22;6689;53.400;12.486;2023-04-25T02:07:48;9.50;99.90
13245;DHT22;6689;53.400;12.486;2023-04-25T02:10:15;9.60;99.90
13245;DHT22;6689;53.400;12.486;2023-04-25T02:12:43;9.60;99.90
13245;DHT22;6689;53.400;12.486;2023-04-25T02:15:12;9.60;99.90
13245;DHT22;6689;53.400;12.486;2023-04-25T02:17:39;9.50;99.90
13245;DHT22;6689;53.400;12.486;2023-04-25T02:20:07;9.50;99.90
13245;DHT22;6689;53.400;12.486;2023-04-25T02:22:34;9.40;99.90
13245;DHT22;6689;53.400;12.486;2023-04-25T02:25:02;9.40;99.90
13245;DHT22;6689;53.400;12.486;2023-04-25T02:27:30;9.40;99.90
13245;DHT22;6689;53.400;12.486;2023-04-25T02:29:58;9.40;99.90
13245;DHT22;6689;53.400;12.486;2023-04-25T02:32:26;9.40;99.90
13245;DHT22;6689;53.400;12.486;2023-04-25T02:34:53;9.30;99.90
13245;DHT22;6689;53.400;12.486;2023-04-25T02:37:21;9.30;99.90
13245;DHT22;6689;53.400;12.486;2023-04-25T02:39:48;9.30;99.90
13245;DHT22;6689;53.400;12.486;2023-04-25T02:42:16;9.20;99.90
13245;DHT22;6689;53.400;12.486;2023-04-25T02:44:43;9.20;99.90
13245;DHT22;6689;53.400;12.486;2023-04-25T02:47:11;9.10;99.90
13245;DHT22;6689;53.400;12.486;2023-04-25T02:49:40;9.10;99.90
13245;DHT22;6689;53.400;12.486;2023-04-25T02:52:07;9.10;99.90
13245;DHT22;6689;53.400;12.486;2023-04-25T02:54:34;9.10;99.90
13245;DHT22;6689;53.400;12.486;2023-04-25T02:57:02;9.10;99.90
13245;DHT22;6689;53.400;12.486;2023-04-25T02:59:29;9.10;99.90
13245;DHT22;6689;53.400;12.486;2023-04-25T03:01:56;9.10;99.90
13245;DHT22;6689;53.400;12.486;2023-04-25T03:04:24;9.00;99.90
13245;DHT22;6689;53.400;12.486;2023-04-25T03:06:53;9.00;99.90
13245;DHT22;6689;53.400;12.486;2023-04-25T03:09:21;9.00;99.90
13245;DHT22;6689;53.400;12.486;2023-04-25T03:11:48;9.00;99.90
13245;DHT22;6689;53.400;12.486;2023-04-25T03:14:15;9.10;99.90
13245;DHT22;6689;53.400;12.486;2023-04-25T03:16:42;9.00;99.90
13245;DHT22;6689;53.400;12.486;2023-04-25T03:19:11;9.00;99.90
13245;DHT22;6689;53.400;12.486;2023-04-25T03:21:41;9.00;99.90
13245;DHT22;6689;53.400;12.486;2023-04-25T03:24:10;9.00;99.90
13245;DHT22;6689;53.400;12.486;2023-04-25T03:26:38;9.00;99.90
13245;DHT22;6689;53.400;12.486;2023-04-25T03:29:05;9.00;99.90
13245;DHT22;6689;53.400;12.486;2023-04-25T03:31:33;9.00;99.90
13245;DHT22;6689;53.400;12.486;2023-04-25T03:34:00;9.00;99.90
13245;DHT22;6689;53.400;12.486;2023-04-25T03:36:27;9.00;99.90
13245;DHT22;6689;53.400;12.486;2023-04-25T03:38:55;8.90;99.90
13245;DHT22;6689;53.400;12.486;2023-04-25T03:41:24;9.00;99.90
13245;DHT22;6689;53.400;12.486;2023-04-25T03:43:52;9.00;99.90
13245;DHT22;6689;53.400;12.486;2023-04-25T03:46:19;9.00;99.90
13245;DHT22;6689;53.400;12.486;2023-04-25T03:48:46;9.10;99.90
13245;DHT22;6689;53.400;12.486;2023-04-25T03:51:13;9.00;99.90
13245;DHT22;6689;53.400;12.486;2023-04-25T03:53:41;9.00;99.90
13245;DHT22;6689;53.400;12.486;2023-04-25T03:56:08;9.00;99.90
13245;DHT22;6689;53.400;12.486;2023-04-25T03:58:37;9.00;99.90
13245;DHT22;6689;53.400;12.486;2023-04-25T04:01:04;9.00;99.90
13245;DHT22;6689;53.400;12.486;2023-04-25T04:03:33;9.00;99.90
13245;DHT22;6689;53.400;12.486;2023-04-25T04:06:01;9.00;1.00
13245;DHT22;6689;53.400;12.486;2023-04-25T04:08:29;8.90;1.00
13245;DHT22;6689;53.400;12.486;2023-04-25T04:10:57;8.80;1.00
13245;DHT22;6689;53.400;12.486;2023-04-25T04:13:26;8.70;1.00
13245;DHT22;6689;53.400;12.486;2023-04-25T04:15:56;8.80;1.00
13245;DHT22;6689;53.400;12.486;2023-04-25T04:18:23;8.80;1.40
13245;DHT22;6689;53.400;12.486;2023-04-25T04:20:51;8.80;1.00
13245;DHT22;6689;53.400;12.486;2023-04-25T04:23:19;8.90;1.00
13245;DHT22;6689;53.400;12.486;2023-04-25T04:25:48;8.80;99.90
13245;DHT22;6689;53.400;12.486;2023-04-25T04:28:18;8.60;99.90
13245;DHT22;6689;53.400;12.486;2023-04-25T04:30:46;8.60;99.90
13245;DHT22;6689;53.400;12.486;2023-04-25T04:33:15;8.70;99.90
13245;DHT22;6689;53.400;12.486;2023-04-25T04:35:44;8.70;99.90
13245;DHT22;6689;53.400;12.486;2023-04-25T04:38:12;8.50;99.90
13245;DHT22;6689;53.400;12.486;2023-04-25T04:40:41;8.70;99.90
13245;DHT22;6689;53.400;12.486;2023-04-25T04:43:14;8.70;99.90
13245;DHT22;6689;53.400;12.486;2023-04-25T04:45:42;8.70;99.90
13245;DHT22;6689;53.400;12.486;2023-04-25T04:48:10;8.70;99.90
13245;DHT22;6689;53.400;12.486;2023-04-25T04:50:43;8.70;99.90
13245;DHT22;6689;53.400;12.486;2023-04-25T04:53:10;8.60;99.90
13245;DHT22;6689;53.400;12.486;2023-04-25T04:55:38;8.60;99.90
13245;DHT22;6689;53.400;12.486;2023-04-25T04:58:06;8.60;99.90
13245;DHT22;6689;53.400;12.486;2023-04-25T05:00:34;8.60;99.90
13245;DHT22;6689;53.400;12.486;2023-04-25T05:03:03;8.70;99.90
13245;DHT22;6689;53.400;12.486;2023-04-25T05:05:31;8.50;99.90
13245;DHT22;6689;53.400;12.486;2023-04-25T05:08:00;8.60;99.90
13245;DHT22;6689;53.400;12.486;2023-04-25T05:10:27;8.50;99.90
13245;DHT22;6689;53.400;12.486;2023-04-25T05:12:54;8.60;99.90
13245;DHT22;6689;53.400;12.486;2023-04-25T05:15:22;8.50;99.90
13245;DHT22;6689;53.400;12.486;2023-04-25T05:17:49;8.60;99.90
13245;DHT22;6689;53.400;12.486;2023-04-25T05:20:16;8.50;99.90
13245;DHT22;6689;53.400;12.486;2023-04-25T05:22:46;8.50;99.90
13245;DHT22;6689;53.400;12.486;2023-04-25T05:25:15;8.40;99.90
13245;DHT22;6689;53.400;12.486;2023-04-25T05:27:43;8.50;99.90
13245;DHT22;6689;53.400;12.486;2023-04-25T05:30:13;8.50;99.90
13245;DHT22;6689;53.400;12.486;2023-04-25T05:32:40;8.50;99.90
13245;DHT22;6689;53.400;12.486;2023-04-25T05:35:10;8.40;99.90
13245;DHT22;6689;53.400;12.486;2023-04-25T05:37:43;8.50;99.90
13245;DHT22;6689;53.400;12.486;2023-04-25T05:40:11;8.60;99.90
13245;DHT22;6689;53.400;12.486;2023-04-25T05:42:39;8.50;99.90
13245;DHT22;6689;53.400;12.486;2023-04-25T05:45:07;8.60;99.90
13245;DHT22;6689;53.400;12.486;2023-04-25T05:47:34;8.50;99.90
13245;DHT22;6689;53.400;12.486;2023-04-25T05:50:02;8.70;99.90
13245;DHT22;6689;53.400;12.486;2023-04-25T05:52:29;8.60;99.90
13245;DHT22;6689;53.400;12.486;2023-04-25T05:54:56;8.40;99.90
13245;DHT22;6689;53.400;12.486;2023-04-25T05:57:25;8.40;99.90
13245;DHT22;6689;53.400;12.486;2023-04-25T05:59:54;8.60;99.90
13245;DHT22;6689;53.400;12.486;2023-04-25T06:02:23;8.80;99.90
13245;DHT22;6689;53.400;12.486;2023-04-25T06:04:51;9.10;99.90
13245;DHT22;6689;53.400;12.486;2023-04-25T06:07:18;9.10;99.90
13245;DHT22;6689;53.400;12.486;2023-04-25T06:09:48;9.20;99.90
13245;DHT22;6689;53.400;12.486;2023-04-25T06:12:16;9.40;99.90
13245;DHT22;6689;53.400;12.486;2023-04-25T06:14:46;9.40;99.90
13245;DHT22;6689;53.400;12.486;2023-04-25T06:17:14;9.80;99.90
13245;DHT22;6689;53.400;12.486;2023-04-25T06:19:42;9.90;99.90
13245;DHT22;6689;53.400;12.486;2023-04-25T06:22:09;9.90;80.90
13245;DHT22;6689;53.400;12.486;2023-04-25T06:24:37;9.50;64.30
13245;DHT22;6689;53.400;12.486;2023-04-25T06:27:04;9.80;71.50
13245;DHT22;6689;53.400;12.486;2023-04-25T06:29:32;9.60;51.00
13245;DHT22;6689;53.400;12.486;2023-04-25T06:31:59;9.80;27.50
13245;DHT22;6689;53.400;12.486;2023-04-25T06:34:28;10.50;35.70
13245;DHT22;6689;53.400;12.486;2023-04-25T06:36:56;11.20;12.60
13245;DHT22;6689;53.400;12.486;2023-04-25T06:39:25;11.10;1.00
13245;DHT22;6689;53.400;12.486;2023-04-25T06:41:52;12.10;1.00
13245;DHT22;6689;53.400;12.486;2023-04-25T06:44:22;12.40;1.00
13245;DHT22;6689;53.400;12.486;2023-04-25T06:46:52;13.30;1.00
13245;DHT22;6689;53.400;12.486;2023-04-25T06:49:19;14.60;1.00
13245;DHT22;6689;53.400;12.486;2023-04-25T06:51:49;14.50;1.00
13245;DHT22;6689;53.400;12.486;2023-04-25T06:54:17;12.80;1.00
13245;DHT22;6689;53.400;12.486;2023-04-25T06:56:45;13.90;1.00
13245;DHT22;6689;53.400;12.486;2023-04-25T06:59:12;15.50;1.00
13245;DHT22;6689;53.400;12.486;2023-04-25T07:01:39;15.80;1.00
13245;DHT22;6689;53.400;12.486;2023-04-25T07:04:07;16.80;1.00
13245;DHT22;6689;53.400;12.486;2023-04-25T07:06:34;17.40;1.00
13245;DHT22;6689;53.400;12.486;2023-04-25T07:09:05;14.70;1.00
13245;DHT22;6689;53.400;12.486;2023-04-25T07:11:36;15.20;1.00
13245;DHT22;6689;53.400;12.486;2023-04-25T07:14:03;14.90;1.00
13245;DHT22;6689;53.400;12.486;2023-04-25T07:16:30;13.50;1.00
13245;DHT22;6689;53.400;12.486;2023-04-25T07:18:57;12.10;1.00
13245;DHT22;6689;53.400;12.486;2023-04-25T07:21:26;11.80;1.00
13245;DHT22;6689;53.400;12.486;2023-04-25T07:23:53;11.40;1.00
13245;DHT22;6689;53.400;12.486;2023-04-25T07:26:21;11.40;1.00
13245;DHT22;6689;53.400;12.486;2023-04-25T07:28:49;11.10;1.00
13245;DHT22;6689;53.400;12.486;2023-04-25T07:31:17;11.70;1.00
13245;DHT22;6689;53.400;12.486;2023-04-25T07:33:45;11.10;1.00
13245;DHT22;6689;53.400;12.486;2023-04-25T07:36:13;11.00;1.00
13245;DHT22;6689;53.400;12.486;2023-04-25T07:38:41;11.20;1.00
13245;DHT22;6689;53.400;12.486;2023-04-25T07:41:08;11.10;1.00
13245;DHT22;6689;53.400;12.486;2023-04-25T07:43:37;11.10;1.00
13245;DHT22;6689;53.400;12.486;2023-04-25T07:46:05;11.10;1.00
13245;DHT22;6689;53.400;12.486;2023-04-25T07:48:32;11.60;1.00
13245;DHT22;6689;53.400;12.486;2023-04-25T07:50:59;11.40;1.00
13245;DHT22;6689;53.400;12.486;2023-04-25T07:53:30;11.70;1.00
13245;DHT22;6689;53.400;12.486;2023-04-25T07:55:57;11.90;1.00
13245;DHT22;6689;53.400;12.486;2023-04-25T07:58:25;11.70;1.00
13245;DHT22;6689;53.400;12.486;2023-04-25T08:00:54;12.20;1.00
13245;DHT22;6689;53.400;12.486;2023-04-25T08:03:21;12.70;1.00
13245;DHT22;6689;53.400;12.486;2023-04-25T08:05:49;13.00;1.00
13245;DHT22;6689;53.400;12.486;2023-04-25T08:08:16;12.80;1.00
13245;DHT22;6689;53.400;12.486;2023-04-25T08:10:43;12.10;1.00
13245;DHT22;6689;53.400;12.486;2023-04-25T08:13:11;11.60;1.00
13245;DHT22;6689;53.400;12.486;2023-04-25T08:15:38;11.20;1.00
13245;DHT22;6689;53.400;12.486;2023-04-25T08:18:07;11.40;1.00
13245;DHT22;6689;53.400;12.486;2023-04-25T08:20:34;11.40;1.00
13245;DHT22;6689;53.400;12.486;2023-04-25T08:23:02;11.10;1.00
13245;DHT22;6689;53.400;12.486;2023-04-25T08:25:29;11.10;1.00
13245;DHT22;6689;53.400;12.486;2023-04-25T08:27:56;11.00;1.00
13245;DHT22;6689;53.400;12.486;2023-04-25T08:30:25;10.50;1.00
13245;DHT22;6689;53.400;12.486;2023-04-25T08:32:52;10.20;1.00
13245;DHT22;6689;53.400;12.486;2023-04-25T08:35:21;9.90;1.00
13245;DHT22;6689;53.400;12.486;2023-04-25T08:37:48;10.10;1.00
13245;DHT22;6689;53.400;12.486;2023-04-25T08:40:17;10.20;1.00
13245;DHT22;6689;53.400;12.486;2023-04-25T08:42:45;10.30;1.00
13245;DHT22;6689;53.400;12.486;2023-04-25T08:45:16;10.20;1.00
13245;DHT22;6689;53.400;12.486;2023-04-25T08:47:47;10.50;1.00
13245;DHT22;6689;53.400;12.486;2023-04-25T08:50:17;10.40;1.00
13245;DHT22;6689;53.400;12.486;2023-04-25T08:52:47;10.40;1.00
13245;DHT22;6689;53.400;12.486;2023-04-25T08:55:18;10.50;1.00
13245;DHT22;6689;53.400;12.486;2023-04-25T08:57:55;10.50;1.00
13245;DHT22;6689;53.400;12.486;2023-04-25T09:00:23;10.30;1.00
13245;DHT22;6689;53.400;12.486;2023-04-25T09:02:51;10.60;1.00
13245;DHT22;6689;53.400;12.486;2023-04-25T09:05:25;10.50;1.00
13245;DHT22;6689;53.400;12.486;2023-04-25T09:07:55;10.60;1.00
13245;DHT22;6689;53.400;12.486;2023-04-25T09:10:23;10.70;1.00
13245;DHT22;6689;53.400;12.486;2023-04-25T09:13:02;10.90;1.00
13245;DHT22;6689;53.400;12.486;2023-04-25T09:15:32;10.20;1.00
13245;DHT22;6689;53.400;12.486;2023-04-25T09:17:59;10.50;1.00
13245;DHT22;6689;53.400;12.486;2023-04-25T09:20:28;10.80;1.00
13245;DHT22;6689;53.400;12.486;2023-04-25T09:23:04;11.20;1.00
13245;DHT22;6689;53.400;12.486;2023-04-25T09:25:36;10.90;1.00
13245;DHT22;6689;53.400;12.486;2023-04-25T09:28:05;10.80;1.00
13245;DHT22;6689;53.400;12.486;2023-04-25T09:30:36;11.00;1.00
13245;DHT22;6689;53.400;12.486;2023-04-25T09:33:07;10.50;1.00
13245;DHT22;6689;53.400;12.486;2023-04-25T09:35:38;10.70;1.00
13245;DHT22;6689;53.400;12.486;2023-04-25T09:38:14;10.30;1.00
13245;DHT22;6689;53.400;12.486;2023-04-25T09:40:45;10.40;1.00
13245;DHT22;6689;53.400;12.486;2023-04-25T09:43:19;10.30;1.00
13245;DHT22;6689;53.400;12.486;2023-04-25T09:45:48;10.50;1.00
13245;DHT22;6689;53.400;12.486;2023-04-25T09:48:18;10.20;1.00
13245;DHT22;6689;53.400;12.486;2023-04-25T09:50:46;9.90;1.00
13245;DHT22;6689;53.400;12.486;2023-04-25T09:53:36;10.30;1.00
13245;DHT22;6689;53.400;12.486;2023-04-25T09:56:07;10.40;1.00
13245;DHT22;6689;53.400;12.486;2023-04-25T09:58:35;10.40;1.00
13245;DHT22;6689;53.400;12.486;2023-04-25T10:01:04;10.50;1.00
13245;DHT22;6689;53.400;12.486;2023-04-25T10:03:33;10.70;1.00
13245;DHT22;6689;53.400;12.486;2023-04-25T10:06:01;10.70;1.00
13245;DHT22;6689;53.400;12.486;2023-04-25T10:08:31;10.70;1.00
13245;DHT22;6689;53.400;12.486;2023-04-25T10:11:02;10.50;1.00
13245;DHT22;6689;53.400;12.486;2023-04-25T10:13:31;10.50;1.00
13245;DHT22;6689;53.400;12.486;2023-04-25T10:15:58;9.90;1.00
13245;DHT22;6689;53.400;12.486;2023-04-25T10:18:27;9.90;1.00
13245;DHT22;6689;53.400;12.486;2023-04-25T10:20:55;10.00;1.00
13245;DHT22;6689;53.400;12.486;2023-04-25T10:23:23;10.40;1.00
13245;DHT22;6689;53.400;12.486;2023-04-25T10:25:51;10.50;1.00
13245;DHT22;6689;53.400;12.486;2023-04-25T10:28:20;10.60;1.00
13245;DHT22;6689;53.400;12.486;2023-04-25T10:31:00;10.70;1.00
13245;DHT22;6689;53.400;12.486;2023-04-25T10:33:35;10.50;1.00
13245;DHT22;6689;53.400;12.486;2023-04-25T10:36:10;10.30;1.00
13245;DHT22;6689;53.400;12.486;2023-04-25T10:38:38;10.80;1.00
13245;DHT22;6689;53.400;12.486;2023-04-25T10:41:06;11.20;1.00
13245;DHT22;6689;53.400;12.486;2023-04-25T10:43:39;11.30;1.00
13245;DHT22;6689;53.400;12.486;2023-04-25T10:46:17;11.60;1.00
13245;DHT22;6689;53.400;12.486;2023-04-25T10:48:47;11.30;1.00
13245;DHT22;6689;53.400;12.486;2023-04-25T10:51:20;11.60;1.00
13245;DHT22;6689;53.400;12.486;2023-04-25T10:53:57;11.40;1.00
13245;DHT22;6689;53.400;12.486;2023-04-25T10:56:28;11.40;1.00
13245;DHT22;6689;53.400;12.486;2023-04-25T10:59:08;11.30;1.00
13245;DHT22;6689;53.400;12.486;2023-04-25T11:01:39;11.40;1.00
13245;DHT22;6689;53.400;12.486;2023-04-25T11:04:19;11.40;1.00
13245;DHT22;6689;53.400;12.486;2023-04-25T11:07:02;11.50;1.00
13245;DHT22;6689;53.400;12.486;2023-04-25T11:09:31;11.60;1.00
13245;DHT22;6689;53.400;12.486;2023-04-25T11:12:00;11.60;1.00
13245;DHT22;6689;53.400;12.486;2023-04-25T11:14:29;11.40;1.00
13245;DHT22;6689;53.400;12.486;2023-04-25T11:16:57;11.70;1.00
13245;DHT22;6689;53.400;12.486;2023-04-25T11:19:25;11.70;1.00
13245;DHT22;6689;53.400;12.486;2023-04-25T11:21:55;11.80;1.00
13245;DHT22;6689;53.400;12.486;2023-04-25T11:24:26;11.50;1.00
13245;DHT22;6689;53.400;12.486;2023-04-25T11:26:54;11.40;1.00
13245;DHT22;6689;53.400;12.486;2023-04-25T11:29:22;11.10;1.00
13245;DHT22;6689;53.400;12.486;2023-04-25T11:31:51;11.10;1.00
13245;DHT22;6689;53.400;12.486;2023-04-25T11:34:19;10.90;1.00
13245;DHT22;6689;53.400;12.486;2023-04-25T11:36:46;10.90;1.00
13245;DHT22;6689;53.400;12.486;2023-04-25T11:39:14;10.90;1.00
13245;DHT22;6689;53.400;12.486;2023-04-25T11:41:44;10.50;1.00
13245;DHT22;6689;53.400;12.486;2023-04-25T11:44:11;10.60;1.00
13245;DHT22;6689;53.400;12.486;2023-04-25T11:46:39;10.10;1.00
13245;DHT22;6689;53.400;12.486;2023-04-25T11:49:08;10.50;1.00
13245;DHT22;6689;53.400;12.486;2023-04-25T11:51:38;10.70;1.00
13245;DHT22;6689;53.400;12.486;2023-04-25T11:54:07;10.80;1.00
13245;DHT22;6689;53.400;12.486;2023-04-25T11:56:34;11.20;1.00
13245;DHT22;6689;53.400;12.486;2023-04-25T11:59:03;11.30;1.00
13245;DHT22;6689;53.400;12.486;2023-04-25T12:01:31;11.30;1.00
13245;DHT22;6689;53.400;12.486;2023-04-25T12:04:12;11.60;1.00
13245;DHT22;6689;53.400;12.486;2023-04-25T12:06:43;11.40;1.00
13245;DHT22;6689;53.400;12.486;2023-04-25T12:09:12;11.80;1.00
13245;DHT22;6689;53.400;12.486;2023-04-25T12:11:41;12.10;1.00
13245;DHT22;6689;53.400;12.486;2023-04-25T12:14:11;12.30;1.00
13245;DHT22;6689;53.400;12.486;2023-04-25T12:16:43;12.10;1.00
13245;DHT22;6689;53.400;12.486;2023-04-25T12:19:13;12.40;1.00
13245;DHT22;6689;53.400;12.486;2023-04-25T12:21:41;12.20;1.00
13245;DHT22;6689;53.400;12.486;2023-04-25T12:24:13;12.10;1.00
13245;DHT22;6689;53.400;12.486;2023-04-25T12:26:51;12.10;1.00
13245;DHT22;6689;53.400;12.486;2023-04-25T12:29:20;11.40;1.00
13245;DHT22;6689;53.400;12.486;2023-04-25T12:31:48;11.80;1.00
13245;DHT22;6689;53.400;12.486;2023-04-25T12:34:17;11.90;1.00
13245;DHT22;6689;53.400;12.486;2023-04-25T12:36:44;12.00;1.00
13245;DHT22;6689;53.400;12.486;2023-04-25T12:39:15;12.50;1.00
13245;DHT22;6689;53.400;12.486;2023-04-25T12:41:43;12.60;1.00
13245;DHT22;6689;53.400;12.486;2023-04-25T12:44:11;12.40;1.00
13245;DHT22;6689;53.400;12.486;2023-04-25T12:46:39;12.20;1.00
13245;DHT22;6689;53.400;12.486;2023-04-25T12:49:07;12.20;1.00
13245;DHT22;6689;53.400;12.486;2023-04-25T12:51:36;11.70;1.00
13245;DHT22;6689;53.400;12.486;2023-04-25T12:54:04;11.40;1.00
13245;DHT22;6689;53.400;12.486;2023-04-25T12:56:33;10.90;1.00
13245;DHT22;6689;53.400;12.486;2023-04-25T12:59:00;11.30;1.00
13245;DHT22;6689;53.400;12.486;2023-04-25T13:01:29;11.20;1.00
13245;DHT22;6689;53.400;12.486;2023-04-25T13:03:56;11.00;1.00
13245;DHT22;6689;53.400;12.486;2023-04-25T13:06:23;11.10;1.00
13245;DHT22;6689;53.400;12.486;2023-04-25T13:08:53;11.10;1.00
13245;DHT22;6689;53.400;12.486;2023-04-25T13:11:20;10.90;1.00
13245;DHT22;6689;53.400;12.486;2023-04-25T13:13:48;10.80;1.00
13245;DHT22;6689;53.400;12.486;2023-04-25T13:16:15;10.70;1.00
13245;DHT22;6689;53.400;12.486;2023-04-25T13:18:43;10.60;1.00
13245;DHT22;6689;53.400;12.486;2023-04-25T13:21:10;10.20;1.00
13245;DHT22;6689;53.400;12.486;2023-04-25T13:23:40;10.30;1.00
13245;DHT22;6689;53.400;12.486;2023-04-25T13:26:10;10.30;1.00
13245;DHT22;6689;53.400;12.486;2023-04-25T13:28:37;10.30;1.00
13245;DHT22;6689;53.400;12.486;2023-04-25T13:31:06;10.20;1.00
13245;DHT22;6689;53.400;12.486;2023-04-25T13:33:33;10.10;1.00
13245;DHT22;6689;53.400;12.486;2023-04-25T13:36:01;10.20;1.00
13245;DHT22;6689;53.400;12.486;2023-04-25T13:38:29;10.40;1.00
13245;DHT22;6689;53.400;12.486;2023-04-25T13:40:56;9.90;1.00
13245;DHT22;6689;53.400;12.486;2023-04-25T13:43:25;10.10;12.10
13245;DHT22;6689;53.400;12.486;2023-04-25T13:45:55;10.30;11.90
13245;DHT22;6689;53.400;12.486;2023-04-25T13:48:23;10.50;9.10
13245;DHT22;6689;53.400;12.486;2023-04-25T13:50:51;10.70;1.00
13245;DHT22;6689;53.400;12.486;2023-04-25T13:53:20;10.70;1.00
13245;DHT22;6689;53.400;12.486;2023-04-25T13:55:48;10.50;1.00
13245;DHT22;6689;53.400;12.486;2023-04-25T13:58:15;10.60;1.00
13245;DHT22;6689;53.400;12.486;2023-04-25T14:00:44;10.80;1.00
13245;DHT22;6689;53.400;12.486;2023-04-25T14:03:12;10.80;1.00
13245;DHT22;6689;53.400;12.486;2023-04-25T14:05:40;11.00;1.00
13245;DHT22;6689;53.400;12.486;2023-04-25T14:08:09;11.10;1.00
13245;DHT22;6689;53.400;12.486;2023-04-25T14:10:37;10.90;1.00
13245;DHT22;6689;53.400;12.486;2023-04-25T14:13:05;11.00;1.00
13245;DHT22;6689;53.400;12.486;2023-04-25T14:15:32;11.30;1.00
13245;DHT22;6689;53.400;12.486;2023-04-25T14:18:05;11.30;1.00
13245;DHT22;6689;53.400;12.486;2023-04-25T14:20:32;11.50;1.00
13245;DHT22;6689;53.400;12.486;2023-04-25T14:23:06;11.60;1.00
13245;DHT22;6689;53.400;12.486;2023-04-25T14:25:33;11.30;1.00
13245;DHT22;6689;53.400;12.486;2023-04-25T14:28:02;11.50;1.00
13245;DHT22;6689;53.400;12.486;2023-04-25T14:30:30;11.10;1.00
13245;DHT22;6689;53.400;12.486;2023-04-25T14:32:58;10.70;1.00
13245;DHT22;6689;53.400;12.486;2023-04-25T14:35:29;11.10;1.00
13245;DHT22;6689;53.400;12.486;2023-04-25T14:37:57;10.90;1.00
13245;DHT22;6689;53.400;12.486;2023-04-25T14:40:25;10.90;1.00
13245;DHT22;6689;53.400;12.486;2023-04-25T14:42:53;10.60;1.00
13245;DHT22;6689;53.400;12.486;2023-04-25T14:45:20;10.80;1.00
13245;DHT22;6689;53.400;12.486;2023-04-25T14:47:47;10.60;1.00
13245;DHT22;6689;53.400;12.486;2023-04-25T14:50:15;10.20;1.00
13245;DHT22;6689;53.400;12.486;2023-04-25T14:52:44;10.40;1.00
13245;DHT22;6689;53.400;12.486;2023-04-25T14:55:11;10.20;1.00
13245;DHT22;6689;53.400;12.486;2023-04-25T14:57:39;10.40;1.00
13245;DHT22;6689;53.400;12.486;2023-04-25T15:00:07;10.70;1.00
13245;DHT22;6689;53.400;12.486;2023-04-25T15:02:35;10.60;1.00
13245;DHT22;6689;53.400;12.486;2023-04-25T15:05:03;10.50;1.00
13245;DHT22;6689;53.400;12.486;2023-04-25T15:07:31;10.50;1.00
13245;DHT22;6689;53.400;12.486;2023-04-25T15:10:01;10.60;1.00
13245;DHT22;6689;53.400;12.486;2023-04-25T15:12:28;10.80;1.00
13245;DHT22;6689;53.400;12.486;2023-04-25T15:14:56;10.90;1.00
13245;DHT22;6689;53.400;12.486;2023-04-25T15:17:23;11.00;1.00
13245;DHT22;6689;53.400;12.486;2023-04-25T15:19:53;11.10;1.00
13245;DHT22;6689;53.400;12.486;2023-04-25T15:22:21;11.20;1.00
13245;DHT22;6689;53.400;12.486;2023-04-25T15:24:48;11.30;1.00
13245;DHT22;6689;53.400;12.486;2023-04-25T15:27:17;10.80;1.00
13245;DHT22;6689;53.400;12.486;2023-04-25T15:29:44;10.90;1.00
13245;DHT22;6689;53.400;12.486;2023-04-25T15:32:12;10.50;1.00
13245;DHT22;6689;53.400;12.486;2023-04-25T15:34:39;10.40;1.00
13245;DHT22;6689;53.400;12.486;2023-04-25T15:37:06;10.30;1.00
13245;DHT22;6689;53.400;12.486;2023-04-25T15:39:34;10.40;1.00
13245;DHT22;6689;53.400;12.486;2023-04-25T15:42:02;10.20;1.00
13245;DHT22;6689;53.400;12.486;2023-04-25T15:44:31;10.20;1.00
13245;DHT22;6689;53.400;12.486;2023-04-25T15:46:58;10.30;1.00
13245;DHT22;6689;53.400;12.486;2023-04-25T15:49:28;10.10;1.00
13245;DHT22;6689;53.400;12.486;2023-04-25T15:51:57;10.10;1.00
13245;DHT22;6689;53.400;12.486;2023-04-25T15:54:24;10.40;1.00
13245;DHT22;6689;53.400;12.486;2023-04-25T15:56:51;10.30;1.00